Time;durP1;ratioP1;P1;durP2;ratioP2;P2;SDS_P1;SDS_P2;PMS_P1;PMS_P2;Temp;Humidity;BMP_temperature;BMP_pressure;BME280_temperature;BME280_humidity;BME280_pressure;Samples;Min_cycle;Max_cycle;Signal;HPM_P1;HPM_P2
2023/08/14 00:00:12;;;;;;;12.70;5.93;;;19.50;87.50;;;;;;5115686;28;20052;-77
2023/08/14 00:02:38;;;;;;;10.25;4.50;;;19.30;87.90;;;;;;5133804;28;20020;-76
2023/08/14 00:05:04;;;;;;;6.25;3.78;;;19.20;88.70;;;;;;5115854;28;20034;-77
2023/08/14 00:07:29;;;;;;;4.60;3.75;;;19.10;89.20;;;;;;5133784;28;20045;-76
2023/08/14 00:09:55;;;;;;;6.05;3.20;;;19.10;89.60;;;;;;5098961;28;20126;-77
2023/08/14 00:12:20;;;;;;;6.97;3.72;;;19.10;89.70;;;;;;5098946;28;20043;-77
2023/08/14 00:14:46;;;;;;;7.70;4.10;;;19.20;89.80;;;;;;5098921;28;20046;-76
2023/08/14 00:17:12;;;;;;;7.68;3.85;;;19.10;89.90;;;;;;5133650;28;20043;-77
2023/08/14 00:19:37;;;;;;;8.65;3.92;;;19.10;90.00;;;;;;5115696;28;20031;-77
2023/08/14 00:22:03;;;;;;;7.55;4.07;;;19.10;90.00;;;;;;5098810;28;20028;-76
2023/08/14 00:24:28;;;;;;;8.30;3.38;;;19.00;90.10;;;;;;5098751;28;20019;-77
2023/08/14 00:26:54;;;;;;;9.15;3.83;;;19.00;90.00;;;;;;5098843;28;20494;-77
2023/08/14 00:29:19;;;;;;;5.60;3.47;;;19.00;90.20;;;;;;5115584;28;20039;-76
2023/08/14 00:31:45;;;;;;;4.47;3.40;;;19.00;90.00;;;;;;5098786;28;20024;-77
2023/08/14 00:34:11;;;;;;;6.80;3.90;;;19.00;89.80;;;;;;5115615;28;20028;-77
2023/08/14 00:36:36;;;;;;;10.55;4.55;;;19.00;89.70;;;;;;5081779;28;20028;-77
2023/08/14 00:39:03;;;;;;;7.30;4.20;;;19.10;89.80;;;;;;5100492;28;20031;-76
2023/08/14 00:41:28;;;;;;;5.10;3.85;;;19.00;89.60;;;;;;5102696;28;20027;-77
2023/08/14 00:43:54;;;;;;;6.97;4.03;;;19.00;89.80;;;;;;5119299;28;20028;-77
2023/08/14 00:46:20;;;;;;;7.15;4.00;;;18.90;89.90;;;;;;5119383;28;20038;-77
2023/08/14 00:48:46;;;;;;;8.45;4.22;;;18.80;90.00;;;;;;5119202;28;20032;-76
2023/08/14 00:51:12;;;;;;;9.20;5.10;;;18.80;90.10;;;;;;5119209;28;20091;-77
2023/08/14 00:53:37;;;;;;;10.60;4.70;;;18.80;90.00;;;;;;5102124;28;20020;-77
2023/08/14 00:56:04;;;;;;;7.63;4.70;;;18.70;89.70;;;;;;5102125;28;20072;-76
2023/08/14 00:58:30;;;;;;;11.80;5.30;;;18.70;89.70;;;;;;5137065;28;20030;-76
2023/08/14 01:00:57;;;;;;;9.52;5.25;;;18.70;90.00;;;;;;5118861;28;20051;-77
2023/08/14 01:03:24;;;;;;;10.25;5.25;;;18.70;89.90;;;;;;5118919;28;20091;-76
2023/08/14 01:05:49;;;;;;;9.48;5.63;;;18.80;90.00;;;;;;5136934;28;20035;-77
2023/08/14 01:08:15;;;;;;;7.95;4.80;;;18.80;89.90;;;;;;5101842;28;20099;-76
2023/08/14 01:10:59;;;;;;;6.68;4.28;;;18.80;89.90;;;;;;5102011;28;20027;-76
2023/08/14 01:14:01;;;;;;;8.32;4.38;;;18.80;89.80;;;;;;5136803;28;20028;-76
2023/08/14 01:16:33;;;;;;;10.20;5.45;;;18.80;89.70;;;;;;5118703;28;20087;-77
2023/08/14 01:18:59;;;;;;;7.97;4.90;;;18.80;89.70;;;;;;5118634;28;20079;-76
2023/08/14 01:22:04;;;;;;;9.75;5.10;;;18.70;89.80;;;;;;5101697;28;20023;-76
2023/08/14 01:24:49;;;;;;;10.57;4.93;;;18.70;89.70;;;;;;5118594;28;20498;-76
2023/08/14 01:27:16;;;;;;;7.93;4.43;;;18.70;90.00;;;;;;5118474;28;20032;-76
2023/08/14 01:29:43;;;;;;;7.45;4.55;;;18.60;90.20;;;;;;5118375;28;20101;-77
2023/08/14 01:32:08;;;;;;;10.18;5.03;;;18.50;90.20;;;;;;5118389;28;20053;-77
2023/08/14 01:34:34;;;;;;;7.88;4.80;;;18.50;90.20;;;;;;5118562;28;20055;-77
2023/08/14 01:37:15;;;;;;;7.82;4.57;;;18.60;90.30;;;;;;5101495;28;20035;-77
2023/08/14 01:39:55;;;;;;;8.15;4.88;;;18.60;90.20;;;;;;5136438;28;20051;-77
2023/08/14 01:42:32;;;;;;;7.53;4.45;;;18.70;90.10;;;;;;5136299;28;20049;-76
2023/08/14 01:45:02;;;;;;;8.93;4.95;;;18.70;90.10;;;;;;5136220;28;20053;-77
2023/08/14 01:47:30;;;;;;;9.93;4.85;;;18.60;89.80;;;;;;5118149;28;20044;-76
2023/08/14 01:49:57;;;;;;;7.47;4.63;;;18.60;89.90;;;;;;5117644;28;20020;-77
2023/08/14 01:52:23;;;;;;;7.85;4.88;;;18.60;89.90;;;;;;5136036;28;20020;-77
2023/08/14 01:54:49;;;;;;;6.70;4.47;;;18.50;90.00;;;;;;5101103;28;20047;-76
2023/08/14 01:57:14;;;;;;;7.75;4.20;;;18.50;89.90;;;;;;5135944;28;20016;-76
2023/08/14 01:59:43;;;;;;;6.68;4.15;;;18.40;90.10;;;;;;5117630;28;20079;-77
2023/08/14 02:02:11;;;;;;;5.85;3.90;;;18.30;90.40;;;;;;5117905;28;20501;-77
2023/08/14 02:04:36;;;;;;;7.07;4.35;;;18.20;90.60;;;;;;5118143;28;20020;-76
2023/08/14 02:07:03;;;;;;;7.25;4.65;;;18.20;90.70;;;;;;5117729;28;20043;-77
2023/08/14 02:09:28;;;;;;;7.20;4.60;;;18.20;90.60;;;;;;5100819;28;20031;-76
2023/08/14 02:11:54;;;;;;;9.65;4.78;;;18.30;90.60;;;;;;5084027;28;20035;-77
2023/08/14 02:14:20;;;;;;;8.45;4.90;;;18.30;90.50;;;;;;5117543;28;20053;-76
2023/08/14 02:16:45;;;;;;;6.00;4.30;;;18.40;90.50;;;;;;5100677;28;20019;-77
2023/08/14 02:19:11;;;;;;;7.10;4.18;;;18.40;90.40;;;;;;5100530;28;20054;-77
2023/08/14 02:21:36;;;;;;;8.32;4.07;;;18.30;90.30;;;;;;5135464;28;20046;-76
2023/08/14 02:24:02;;;;;;;6.50;3.90;;;18.30;90.20;;;;;;5100596;28;20490;-76
2023/08/14 02:26:28;;;;;;;5.22;3.45;;;18.30;90.00;;;;;;5117360;28;20060;-77
2023/08/14 02:28:54;;;;;;;5.65;3.60;;;18.30;89.60;;;;;;5117292;28;20024;-77
2023/08/14 02:31:20;;;;;;;8.23;3.65;;;18.20;89.80;;;;;;5117200;28;20478;-76
2023/08/14 02:33:45;;;;;;;8.82;4.05;;;18.10;90.10;;;;;;5135142;28;20035;-77
2023/08/14 02:36:11;;;;;;;6.80;4.43;;;18.10;90.40;;;;;;5117246;28;20038;-76
2023/08/14 02:38:36;;;;;;;7.95;4.97;;;18.00;90.60;;;;;;5117197;28;20035;-77
2023/08/14 02:41:03;;;;;;;8.50;5.30;;;18.00;90.80;;;;;;5117084;28;20024;-76
2023/08/14 02:43:28;;;;;;;9.32;4.55;;;18.00;91.00;;;;;;5116970;28;20027;-77
2023/08/14 02:45:54;;;;;;;6.43;4.45;;;18.10;91.50;;;;;;5100031;28;20050;-77
2023/08/14 02:48:20;;;;;;;6.40;4.43;;;18.10;91.10;;;;;;5116917;28;20035;-77
2023/08/14 02:50:45;;;;;;;7.30;4.60;;;18.00;91.00;;;;;;5135008;28;20028;-76
2023/08/14 02:53:11;;;;;;;8.52;4.90;;;18.00;91.10;;;;;;5117038;28;20047;-76
2023/08/14 02:55:37;;;;;;;6.25;4.32;;;18.00;91.20;;;;;;5099709;28;20020;-77
2023/08/14 02:58:02;;;;;;;7.43;4.53;;;18.10;91.20;;;;;;5099727;28;20073;-76
2023/08/14 03:00:28;;;;;;;8.23;5.00;;;18.10;91.10;;;;;;5116470;28;20059;-77
2023/08/14 03:02:54;;;;;;;6.80;3.83;;;18.00;91.00;;;;;;5116444;28;20083;-77
2023/08/14 03:05:19;;;;;;;10.18;4.72;;;18.00;91.10;;;;;;5116571;28;20059;-76
2023/08/14 03:07:45;;;;;;;8.93;4.75;;;17.80;91.50;;;;;;5134549;28;20051;-76
2023/08/14 03:10:11;;;;;;;8.73;4.72;;;17.80;91.40;;;;;;5099553;28;20020;-76
2023/08/14 03:12:37;;;;;;;7.53;4.30;;;17.90;91.50;;;;;;5116463;28;20430;-77
2023/08/14 03:15:04;;;;;;;8.52;4.65;;;17.80;91.40;;;;;;5116510;28;20046;-77
2023/08/14 03:17:30;;;;;;;7.63;4.28;;;17.80;91.50;;;;;;5116714;28;20026;-76
2023/08/14 03:19:55;;;;;;;5.80;4.07;;;17.90;91.40;;;;;;5116553;28;20079;-76
2023/08/14 03:22:21;;;;;;;7.22;4.45;;;17.90;91.20;;;;;;5116425;28;20525;-77
2023/08/14 03:24:46;;;;;;;7.78;4.70;;;17.90;91.20;;;;;;5082618;28;20049;-76
2023/08/14 03:27:12;;;;;;;7.18;4.55;;;17.80;91.40;;;;;;5116189;28;20124;-76
2023/08/14 03:29:38;;;;;;;7.32;4.45;;;17.80;91.60;;;;;;5116252;28;20090;-77
2023/08/14 03:32:03;;;;;;;6.82;4.45;;;17.80;91.50;;;;;;5099273;28;20119;-77
2023/08/14 03:34:29;;;;;;;9.88;4.68;;;17.80;91.50;;;;;;5099112;28;20020;-77
2023/08/14 03:36:55;;;;;;;6.80;4.72;;;17.90;91.60;;;;;;5116200;28;20026;-76
2023/08/14 03:39:21;;;;;;;7.95;4.93;;;17.90;91.50;;;;;;5134084;28;20406;-77
2023/08/14 03:41:47;;;;;;;8.20;5.10;;;18.00;91.40;;;;;;5099234;28;20030;-76
2023/08/14 03:44:12;;;;;;;7.88;5.05;;;18.00;91.50;;;;;;5116085;28;20024;-77
2023/08/14 03:46:38;;;;;;;9.20;5.85;;;17.90;91.50;;;;;;5099107;28;20035;-76
2023/08/14 03:49:05;;;;;;;8.52;5.53;;;17.90;91.50;;;;;;5134029;28;20036;-77
2023/08/14 03:51:31;;;;;;;7.78;4.78;;;17.90;91.50;;;;;;5099443;28;20019;-76
2023/08/14 03:53:57;;;;;;;9.02;5.60;;;17.90;91.40;;;;;;5099187;28;20026;-76
2023/08/14 03:56:23;;;;;;;8.57;4.93;;;17.90;91.40;;;;;;5133924;28;20103;-77
2023/08/14 03:58:48;;;;;;;6.43;4.97;;;17.90;91.40;;;;;;5133886;28;20043;-77
2023/08/14 04:01:14;;;;;;;5.43;3.97;;;18.00;91.30;;;;;;5078693;28;20052;-77
2023/08/14 04:03:39;;;;;;;6.90;4.65;;;18.00;91.10;;;;;;5078879;28;20028;-77
2023/08/14 04:06:05;;;;;;;7.80;4.88;;;17.90;91.10;;;;;;5095583;28;20103;-77
2023/08/14 04:08:31;;;;;;;7.10;4.68;;;17.90;91.20;;;;;;5112391;28;20025;-76
2023/08/14 04:10:57;;;;;;;6.40;4.28;;;17.90;91.20;;;;;;5095552;28;20052;-77
2023/08/14 04:13:26;;;;;;;5.65;3.70;;;17.90;91.20;;;;;;5098263;28;20047;-76
2023/08/14 04:15:59;;;;;;;6.93;3.70;;;17.90;91.20;;;;;;5099515;28;20024;-77
2023/08/14 04:18:29;;;;;;;3.60;2.30;;;17.80;91.00;;;;;;5117514;28;20575;-77
2023/08/14 04:20:54;;;;;;;3.33;2.60;;;17.60;91.10;;;;;;5116444;28;20054;-77
2023/08/14 04:23:22;;;;;;;5.97;3.00;;;17.40;91.20;;;;;;5117333;28;20028;-77
2023/08/14 04:25:47;;;;;;;4.03;2.92;;;17.40;91.20;;;;;;5117262;28;20032;-76
2023/08/14 04:28:13;;;;;;;4.13;3.08;;;17.40;91.20;;;;;;5117242;28;20036;-77
2023/08/14 04:30:38;;;;;;;4.63;3.05;;;17.30;91.10;;;;;;5099221;28;20123;-76
2023/08/14 04:33:04;;;;;;;6.47;3.30;;;17.30;91.30;;;;;;5099263;28;20020;-77
2023/08/14 04:35:30;;;;;;;6.22;3.38;;;17.30;91.90;;;;;;5099181;28;20421;-77
2023/08/14 04:37:55;;;;;;;6.53;4.10;;;17.30;91.60;;;;;;5082387;28;20020;-76
2023/08/14 04:40:21;;;;;;;8.68;5.30;;;17.40;91.70;;;;;;5115918;28;20028;-76
2023/08/14 04:42:47;;;;;;;7.35;4.47;;;17.40;91.70;;;;;;5116069;28;20020;-76
2023/08/14 04:45:12;;;;;;;9.15;5.00;;;17.50;91.60;;;;;;5098985;28;20043;-77
2023/08/14 04:47:38;;;;;;;8.38;4.82;;;17.50;91.70;;;;;;5116887;28;20030;-77
2023/08/14 04:50:05;;;;;;;7.45;4.45;;;17.50;91.70;;;;;;5098780;28;20103;-76
2023/08/14 04:52:30;;;;;;;5.35;4.05;;;17.40;91.70;;;;;;5116758;28;20016;-76
2023/08/14 04:54:56;;;;;;;9.80;4.50;;;17.50;91.80;;;;;;5098801;28;20379;-76
2023/08/14 04:57:21;;;;;;;9.77;5.70;;;17.50;91.80;;;;;;5115728;28;20054;-76
2023/08/14 04:59:47;;;;;;;11.00;5.03;;;17.60;91.80;;;;;;5098489;28;20074;-77
2023/08/14 05:02:13;;;;;;;9.10;5.78;;;17.60;91.90;;;;;;5116528;28;20028;-77
2023/08/14 05:04:38;;;;;;;8.93;5.35;;;17.70;91.90;;;;;;5081927;28;20028;-77
2023/08/14 05:07:04;;;;;;;8.93;6.03;;;17.70;92.00;;;;;;5115582;28;20036;-76
2023/08/14 05:09:30;;;;;;;13.60;6.45;;;17.80;92.00;;;;;;5098407;28;20056;-76
2023/08/14 05:11:57;;;;;;;13.32;6.97;;;17.80;92.10;;;;;;5116377;28;20024;-77
2023/08/14 05:14:23;;;;;;;11.77;8.07;;;17.80;92.20;;;;;;5098429;28;20028;-76
2023/08/14 05:16:48;;;;;;;12.65;8.35;;;17.90;92.30;;;;;;5115328;28;20072;-77
2023/08/14 05:19:14;;;;;;;14.02;7.47;;;17.90;92.30;;;;;;5081788;28;20467;-76
2023/08/14 05:21:40;;;;;;;12.00;8.73;;;17.90;92.50;;;;;;5098446;28;20039;-76
2023/08/14 05:24:05;;;;;;;15.15;9.88;;;17.90;92.60;;;;;;5114479;28;20036;-77
2023/08/14 05:26:31;;;;;;;15.57;9.52;;;17.90;92.90;;;;;;5116290;28;20088;-76
2023/08/14 05:28:57;;;;;;;17.95;10.55;;;17.80;93.00;;;;;;5115972;28;20032;-76
2023/08/14 05:31:22;;;;;;;23.73;10.73;;;17.80;93.30;;;;;;5098245;28;20052;-77
2023/08/14 05:33:48;;;;;;;19.42;10.95;;;17.90;93.50;;;;;;5097851;28;20020;-77
2023/08/14 05:36:13;;;;;;;20.92;10.95;;;17.80;93.60;;;;;;5098112;28;20025;-76
2023/08/14 05:38:39;;;;;;;16.80;10.50;;;17.80;94.00;;;;;;5098022;28;20028;-77
2023/08/14 05:41:05;;;;;;;16.52;10.95;;;17.80;94.00;;;;;;5114807;28;20055;-76
2023/08/14 05:43:30;;;;;;;17.85;11.02;;;17.90;94.10;;;;;;5081294;28;20080;-77
2023/08/14 05:45:56;;;;;;;17.35;10.50;;;18.00;94.10;;;;;;5097845;28;20027;-77
2023/08/14 05:48:22;;;;;;;17.30;11.23;;;18.00;94.10;;;;;;5114546;28;20043;-76
2023/08/14 05:50:51;;;;;;;16.23;11.48;;;18.10;94.10;;;;;;5097927;28;20066;-77
2023/08/14 05:53:17;;;;;;;18.30;12.05;;;18.20;94.10;;;;;;5114631;28;20016;-77
2023/08/14 05:55:43;;;;;;;20.52;12.88;;;18.20;94.00;;;;;;5080931;28;20046;-76
2023/08/14 05:58:08;;;;;;;18.33;12.45;;;18.30;94.00;;;;;;5114738;28;20093;-76
2023/08/14 06:00:36;;;;;;;18.83;12.90;;;18.30;94.20;;;;;;5114329;28;20044;-76
2023/08/14 06:03:02;;;;;;;20.25;13.70;;;18.30;94.30;;;;;;5115390;28;20031;-77
2023/08/14 06:05:28;;;;;;;22.48;13.50;;;18.30;94.30;;;;;;5115341;28;20031;-77
2023/08/14 06:07:54;;;;;;;20.20;13.80;;;18.20;94.30;;;;;;5115225;28;20383;-76
2023/08/14 06:10:21;;;;;;;20.40;14.57;;;18.20;94.50;;;;;;5114294;28;20063;-76
2023/08/14 06:12:50;;;;;;;23.05;15.00;;;18.20;94.60;;;;;;5097332;28;20016;-76
2023/08/14 06:15:18;;;;;;;20.27;14.70;;;18.20;94.80;;;;;;5114193;28;20016;-76
2023/08/14 06:17:44;;;;;;;23.25;15.60;;;18.20;94.90;;;;;;5114148;28;20026;-77
2023/08/14 06:20:11;;;;;;;22.98;15.68;;;18.30;94.90;;;;;;5115088;28;20048;-76
2023/08/14 06:22:46;;;;;;;24.25;15.38;;;18.30;94.80;;;;;;5114043;28;20088;-76
2023/08/14 06:25:12;;;;;;;21.52;15.95;;;18.30;94.90;;;;;;5114213;28;20024;-77
2023/08/14 06:27:38;;;;;;;23.45;16.60;;;18.30;94.90;;;;;;5113883;28;20098;-76
2023/08/14 06:30:05;;;;;;;23.85;17.00;;;18.40;95.00;;;;;;5096878;28;20103;-76
2023/08/14 06:32:31;;;;;;;28.58;17.02;;;18.40;95.10;;;;;;5113843;28;20031;-76
2023/08/14 06:34:56;;;;;;;25.45;17.58;;;18.40;95.10;;;;;;5080084;28;20024;-77
2023/08/14 06:37:22;;;;;;;22.33;16.67;;;18.40;95.10;;;;;;5112696;28;20039;-77
2023/08/14 06:39:48;;;;;;;24.90;17.52;;;18.40;95.20;;;;;;5113622;28;20032;-76
2023/08/14 06:42:13;;;;;;;27.40;17.58;;;18.50;95.20;;;;;;5096761;28;20058;-77
2023/08/14 06:44:42;;;;;;;24.42;18.70;;;18.40;95.30;;;;;;5113570;28;20032;-76
2023/08/14 06:47:07;;;;;;;24.48;17.60;;;18.40;95.50;;;;;;5114517;28;20045;-76
2023/08/14 06:49:33;;;;;;;24.40;17.52;;;18.50;95.60;;;;;;5113472;28;20032;-76
2023/08/14 06:51:58;;;;;;;22.23;17.27;;;18.50;95.60;;;;;;5079935;28;20050;-77
2023/08/14 06:54:24;;;;;;;29.08;19.40;;;18.60;95.60;;;;;;5113502;28;20028;-76
2023/08/14 06:56:50;;;;;;;26.63;19.70;;;18.70;95.70;;;;;;5114508;28;20020;-77
2023/08/14 06:59:16;;;;;;;25.20;19.13;;;18.70;95.80;;;;;;5114699;28;20028;-77
2023/08/14 07:01:41;;;;;;;23.90;17.95;;;18.80;95.80;;;;;;5116734;28;20031;-76
2023/08/14 07:04:07;;;;;;;26.13;17.88;;;18.80;95.80;;;;;;5134688;28;20031;-77
2023/08/14 07:06:33;;;;;;;28.15;19.42;;;18.90;96.00;;;;;;5099590;28;20031;-76
2023/08/14 07:08:59;;;;;;;23.83;18.20;;;19.00;96.10;;;;;;5099662;28;20020;-77
2023/08/14 07:11:25;;;;;;;25.90;17.15;;;19.00;95.90;;;;;;5116462;28;20043;-77
2023/08/14 07:13:51;;;;;;;25.08;16.00;;;19.00;95.90;;;;;;5116671;28;20031;-76
2023/08/14 07:16:16;;;;;;;23.95;16.33;;;19.10;95.80;;;;;;5099522;28;20023;-77
2023/08/14 07:18:42;;;;;;;25.30;17.05;;;19.20;95.70;;;;;;5099462;28;20035;-77
2023/08/14 07:21:07;;;;;;;21.05;14.98;;;19.20;95.80;;;;;;5116545;28;20028;-77
2023/08/14 07:23:33;;;;;;;21.67;14.85;;;19.20;95.50;;;;;;5099439;28;20027;-77
2023/08/14 07:26:11;;;;;;;26.05;15.77;;;19.30;95.40;;;;;;5099503;28;20032;-77
2023/08/14 07:28:40;;;;;;;21.70;14.18;;;19.40;95.60;;;;;;5134221;28;20045;-77
2023/08/14 07:31:09;;;;;;;21.35;13.30;;;19.50;95.60;;;;;;5116226;28;20020;-76
2023/08/14 07:33:35;;;;;;;16.83;11.68;;;19.60;95.80;;;;;;5116003;28;20079;-77
2023/08/14 07:36:02;;;;;;;17.52;12.27;;;19.60;95.50;;;;;;5099297;28;20028;-77
2023/08/14 07:38:28;;;;;;;19.80;12.68;;;19.70;95.40;;;;;;5116056;28;20024;-77
2023/08/14 07:40:54;;;;;;;16.70;11.02;;;19.80;95.30;;;;;;5116060;28;20031;-77
2023/08/14 07:43:21;;;;;;;16.45;10.75;;;19.80;94.90;;;;;;5115969;28;20026;-77
2023/08/14 07:45:47;;;;;;;17.40;10.48;;;19.80;94.80;;;;;;5116020;28;20045;-76
2023/08/14 07:48:13;;;;;;;18.35;10.55;;;19.90;94.70;;;;;;5098701;28;20039;-77
2023/08/14 07:50:38;;;;;;;15.93;10.15;;;19.90;94.50;;;;;;5133985;28;20024;-76
2023/08/14 07:53:04;;;;;;;17.40;9.35;;;19.90;94.60;;;;;;5116153;28;20034;-76
2023/08/14 07:55:29;;;;;;;16.25;8.50;;;19.90;94.50;;;;;;5134064;28;20030;-76
2023/08/14 07:57:55;;;;;;;17.98;8.88;;;20.00;94.10;;;;;;5115848;28;20091;-76
2023/08/14 08:00:21;;;;;;;16.85;8.90;;;20.00;94.00;;;;;;5115923;28;20048;-77
2023/08/14 08:02:47;;;;;;;16.08;8.88;;;20.00;93.80;;;;;;5099111;28;20069;-77
2023/08/14 08:05:12;;;;;;;15.18;8.93;;;20.10;93.80;;;;;;5133830;28;20044;-77
2023/08/14 08:07:38;;;;;;;17.20;9.48;;;20.10;93.70;;;;;;5099071;28;20024;-77
2023/08/14 08:10:04;;;;;;;18.92;10.10;;;20.20;94.00;;;;;;5133723;28;20032;-77
2023/08/14 08:12:30;;;;;;;16.45;8.98;;;20.30;93.80;;;;;;5115898;28;20024;-77
2023/08/14 08:14:56;;;;;;;16.60;9.18;;;20.40;93.80;;;;;;5115741;28;20034;-77
2023/08/14 08:17:21;;;;;;;13.90;7.75;;;20.40;93.30;;;;;;5115884;28;20055;-77
2023/08/14 08:19:47;;;;;;;18.67;8.75;;;20.50;92.60;;;;;;5133726;28;20053;-77
2023/08/14 08:22:13;;;;;;;16.10;8.98;;;20.60;92.90;;;;;;5115614;28;20050;-77
2023/08/14 08:24:39;;;;;;;15.68;8.40;;;20.60;92.70;;;;;;5115681;28;20028;-77
2023/08/14 08:27:05;;;;;;;15.30;8.93;;;20.70;93.10;;;;;;5115745;28;20080;-77
2023/08/14 08:29:30;;;;;;;15.40;9.05;;;20.80;93.00;;;;;;5115684;28;20530;-77
2023/08/14 08:31:56;;;;;;;15.07;8.25;;;20.80;93.10;;;;;;5115668;28;20027;-76
2023/08/14 08:34:21;;;;;;;15.70;8.70;;;21.00;93.00;;;;;;5098630;28;20027;-77
2023/08/14 08:36:47;;;;;;;14.63;8.80;;;21.10;92.90;;;;;;5133629;28;20087;-77
2023/08/14 08:39:13;;;;;;;14.77;8.57;;;21.20;92.70;;;;;;5115525;28;20058;-77
2023/08/14 08:41:42;;;;;;;17.23;8.07;;;21.20;91.90;;;;;;5115492;28;20026;-77
2023/08/14 08:44:29;;;;;;;14.13;7.47;;;21.20;91.80;;;;;;5115529;28;20553;-77
2023/08/14 08:47:02;;;;;;;13.18;8.13;;;21.30;91.30;;;;;;5115561;28;20024;-76
2023/08/14 08:49:28;;;;;;;12.80;7.60;;;21.40;91.70;;;;;;5099140;28;20024;-77
2023/08/14 08:51:55;;;;;;;9.30;6.60;;;21.40;92.00;;;;;;5115320;28;20513;-77
2023/08/14 08:54:21;;;;;;;11.50;6.80;;;21.60;91.60;;;;;;5115451;28;20102;-77
2023/08/14 08:56:47;;;;;;;15.98;7.65;;;21.60;90.60;;;;;;5115311;28;20019;-77
2023/08/14 08:59:14;;;;;;;11.45;7.28;;;21.70;90.60;;;;;;5098754;28;20089;-77
2023/08/14 09:01:41;;;;;;;15.40;7.35;;;21.80;90.90;;;;;;5119140;28;20113;-77
2023/08/14 09:04:07;;;;;;;15.88;7.28;;;21.80;90.90;;;;;;5119118;28;20061;-77
2023/08/14 09:06:33;;;;;;;10.68;6.88;;;21.90;91.40;;;;;;5136980;28;20031;-77
2023/08/14 09:08:59;;;;;;;13.05;7.65;;;22.00;90.90;;;;;;5119047;28;20024;-77
2023/08/14 09:11:25;;;;;;;13.35;6.47;;;22.10;90.40;;;;;;5119105;28;20019;-77
2023/08/14 09:13:51;;;;;;;9.73;6.10;;;22.20;90.70;;;;;;5118683;28;20008;-77
2023/08/14 09:16:17;;;;;;;12.30;5.78;;;22.30;90.70;;;;;;5119031;28;20498;-77
2023/08/14 09:18:43;;;;;;;10.40;6.03;;;22.50;88.20;;;;;;5118817;28;20040;-78
2023/08/14 09:21:10;;;;;;;10.90;7.00;;;22.50;88.30;;;;;;5136733;28;20023;-77
2023/08/14 09:23:41;;;;;;;13.25;6.47;;;22.50;88.60;;;;;;5136655;28;20020;-77
2023/08/14 09:26:07;;;;;;;11.95;6.47;;;22.60;87.00;;;;;;5101663;28;20028;-77
2023/08/14 09:28:34;;;;;;;14.93;6.22;;;22.70;87.50;;;;;;5136487;28;20031;-78
2023/08/14 09:31:10;;;;;;;10.18;5.50;;;22.80;86.60;;;;;;5136585;28;20079;-77
2023/08/14 09:33:37;;;;;;;11.80;5.32;;;22.90;87.60;;;;;;5102092;28;20049;-77
2023/08/14 09:36:03;;;;;;;8.65;4.57;;;22.90;85.90;;;;;;5118415;28;20058;-77
2023/08/14 09:38:31;;;;;;;7.43;4.20;;;23.00;86.50;;;;;;5118290;28;20023;-77
2023/08/14 09:40:57;;;;;;;7.90;3.90;;;23.10;85.40;;;;;;5101679;28;20494;-77
2023/08/14 09:43:24;;;;;;;9.65;3.50;;;23.10;83.70;;;;;;5118202;28;20126;-77
2023/08/14 09:45:53;;;;;;;5.53;2.70;;;23.20;83.30;;;;;;5101263;28;20049;-77
2023/08/14 09:48:19;;;;;;;7.07;2.78;;;23.30;83.20;;;;;;5136156;28;20023;-77
2023/08/14 09:50:51;;;;;;;6.10;3.17;;;23.30;79.60;;;;;;5084546;28;20087;-76
2023/08/14 09:53:18;;;;;;;7.40;2.90;;;23.30;80.80;;;;;;5118308;28;20034;-77
2023/08/14 09:55:44;;;;;;;7.13;2.40;;;23.30;78.50;;;;;;5118176;28;20023;-77
2023/08/14 09:58:10;;;;;;;7.35;2.55;;;23.40;81.70;;;;;;5136070;28;20020;-76
2023/08/14 10:00:37;;;;;;;4.18;2.83;;;23.30;79.30;;;;;;5135767;28;20099;-77
2023/08/14 10:03:07;;;;;;;7.20;2.92;;;23.40;81.10;;;;;;5100797;28;20028;-77
2023/08/14 10:05:33;;;;;;;6.57;2.47;;;23.50;81.00;;;;;;5135833;28;20027;-77
2023/08/14 10:08:00;;;;;;;6.30;2.90;;;23.50;81.60;;;;;;5117770;28;20024;-77
2023/08/14 10:10:31;;;;;;;6.78;2.08;;;23.70;82.20;;;;;;5117663;28;20079;-77
2023/08/14 10:13:01;;;;;;;4.85;2.05;;;23.70;78.70;;;;;;5135736;28;20023;-77
2023/08/14 10:15:31;;;;;;;5.30;1.73;;;23.70;77.30;;;;;;5135736;28;20044;-77
2023/08/14 10:18:01;;;;;;;3.25;1.60;;;23.70;77.30;;;;;;5135656;28;20015;-77
2023/08/14 10:20:31;;;;;;;4.22;1.60;;;23.90;78.70;;;;;;5135574;28;20020;-76
2023/08/14 10:22:57;;;;;;;4.25;1.50;;;23.90;76.80;;;;;;5117452;28;20020;-77
2023/08/14 10:25:24;;;;;;;3.95;1.67;;;23.90;76.50;;;;;;5117436;28;20028;-77
2023/08/14 10:27:51;;;;;;;4.10;2.00;;;23.90;74.10;;;;;;5135419;28;20019;-77
2023/08/14 10:30:20;;;;;;;5.53;1.70;;;24.10;76.60;;;;;;5117232;28;20039;-77
2023/08/14 10:32:46;;;;;;;4.85;1.65;;;24.10;77.80;;;;;;5135376;28;20024;-77
2023/08/14 10:35:12;;;;;;;3.25;1.50;;;24.20;77.50;;;;;;5117185;28;20020;-77
2023/08/14 10:37:48;;;;;;;5.30;1.50;;;24.40;76.40;;;;;;5100327;28;20031;-77
2023/08/14 10:40:24;;;;;;;3.83;1.50;;;24.30;73.20;;;;;;5117148;28;20035;-77
2023/08/14 10:42:57;;;;;;;3.55;1.40;;;24.40;73.50;;;;;;5117177;28;20034;-77
2023/08/14 10:45:25;;;;;;;2.85;1.50;;;24.40;73.60;;;;;;5135083;28;20046;-77
2023/08/14 10:47:52;;;;;;;3.47;1.30;;;24.50;74.60;;;;;;5117106;28;20027;-77
2023/08/14 10:50:20;;;;;;;4.97;1.60;;;24.60;73.00;;;;;;5117119;28;20035;-77
2023/08/14 10:52:48;;;;;;;3.30;1.20;;;24.70;74.30;;;;;;5134917;28;20020;-76
2023/08/14 10:55:18;;;;;;;4.38;1.33;;;24.60;71.70;;;;;;5134860;28;20023;-77
2023/08/14 10:57:45;;;;;;;2.78;1.15;;;24.60;72.80;;;;;;5116749;28;20023;-77
2023/08/14 11:00:25;;;;;;;4.90;1.33;;;24.70;73.60;;;;;;5134582;28;20043;-77
2023/08/14 11:03:05;;;;;;;3.53;1.30;;;24.80;71.60;;;;;;5116662;28;20031;-77
2023/08/14 11:05:39;;;;;;;3.85;1.33;;;24.70;70.40;;;;;;5116623;28;20100;-77
2023/08/14 11:08:11;;;;;;;2.65;1.33;;;24.70;71.60;;;;;;5134576;28;20019;-77
2023/08/14 11:10:37;;;;;;;3.70;1.50;;;24.80;72.50;;;;;;5116722;28;20042;-77
2023/08/14 11:13:08;;;;;;;4.00;1.55;;;24.90;71.70;;;;;;5134557;28;20062;-76
2023/08/14 11:15:35;;;;;;;3.90;1.30;;;24.90;71.30;;;;;;5134681;28;20023;-76
2023/08/14 11:18:02;;;;;;;3.60;1.40;;;24.90;71.00;;;;;;5134459;28;20023;-76
2023/08/14 11:20:29;;;;;;;6.88;1.83;;;24.90;72.00;;;;;;5134424;28;20024;-76
2023/08/14 11:22:55;;;;;;;7.07;1.67;;;25.00;71.00;;;;;;5116202;28;20024;-76
2023/08/14 11:25:22;;;;;;;3.38;1.42;;;25.10;71.20;;;;;;5134308;28;20050;-76
2023/08/14 11:27:49;;;;;;;3.05;1.42;;;25.10;70.90;;;;;;5134348;28;20027;-76
2023/08/14 11:30:19;;;;;;;4.38;1.52;;;25.20;72.50;;;;;;5099315;28;20030;-76
2023/08/14 11:32:45;;;;;;;6.55;1.50;;;25.10;69.70;;;;;;5116189;28;20027;-76
2023/08/14 11:35:11;;;;;;;3.83;1.52;;;25.10;71.10;;;;;;5116274;28;20084;-76
2023/08/14 11:37:37;;;;;;;2.85;1.33;;;25.30;70.60;;;;;;5116122;28;20043;-77
2023/08/14 11:40:05;;;;;;;4.53;1.30;;;25.40;70.80;;;;;;5082628;28;20028;-76
2023/08/14 11:42:35;;;;;;;4.15;1.50;;;25.40;71.10;;;;;;5099232;28;20043;-75
2023/08/14 11:45:04;;;;;;;5.20;1.35;;;25.50;69.60;;;;;;5134093;28;20024;-75
2023/08/14 11:47:48;;;;;;;4.03;1.15;;;25.50;68.90;;;;;;5115989;28;20028;-76
2023/08/14 11:50:15;;;;;;;2.63;1.08;;;25.50;69.40;;;;;;5115970;28;20020;-76
2023/08/14 11:52:45;;;;;;;4.07;1.42;;;25.60;68.60;;;;;;5116011;28;20057;-77
2023/08/14 11:55:11;;;;;;;4.20;1.30;;;25.60;69.60;;;;;;5133920;28;20026;-76
2023/08/14 11:57:38;;;;;;;4.28;1.58;;;25.70;69.30;;;;;;5099227;28;20053;-75
2023/08/14 12:00:10;;;;;;;2.85;1.08;;;25.70;70.10;;;;;;5133606;28;20059;-76
2023/08/14 12:02:37;;;;;;;3.38;1.25;;;25.60;66.90;;;;;;5116886;28;20031;-76
2023/08/14 12:05:03;;;;;;;2.53;1.10;;;25.50;67.10;;;;;;5133873;28;20089;-76
2023/08/14 12:07:29;;;;;;;4.65;1.30;;;25.50;69.10;;;;;;5116087;28;20032;-76
2023/08/14 12:09:56;;;;;;;4.43;1.40;;;25.50;68.80;;;;;;5115824;28;20024;-76
2023/08/14 12:12:22;;;;;;;4.20;1.40;;;25.60;68.70;;;;;;5115805;28;20016;-76
2023/08/14 12:14:50;;;;;;;2.97;1.23;;;25.70;68.20;;;;;;5115729;28;20046;-76
2023/08/14 12:17:18;;;;;;;2.88;1.23;;;25.80;66.60;;;;;;5115760;28;20020;-75
2023/08/14 12:19:48;;;;;;;2.78;1.10;;;25.70;67.00;;;;;;5115809;28;20027;-76
2023/08/14 12:22:14;;;;;;;1.83;1.10;;;25.80;66.00;;;;;;5115720;28;20038;-75
2023/08/14 12:24:41;;;;;;;1.77;1.10;;;25.90;64.80;;;;;;5115813;28;20063;-75
2023/08/14 12:27:20;;;;;;;4.15;0.98;;;25.80;64.80;;;;;;5115599;28;20027;-75
2023/08/14 12:29:46;;;;;;;2.60;1.02;;;25.90;68.00;;;;;;5133523;28;20035;-74
2023/08/14 12:32:12;;;;;;;3.88;1.10;;;25.90;63.20;;;;;;5133640;28;20015;-74
2023/08/14 12:34:38;;;;;;;4.53;1.15;;;25.90;64.00;;;;;;5134718;28;20487;-74
2023/08/14 12:37:10;;;;;;;3.17;1.27;;;26.10;65.80;;;;;;5137442;28;20019;-75
2023/08/14 12:39:36;;;;;;;6.80;1.30;;;26.20;62.20;;;;;;5119554;28;20087;-76